Time;durP1;ratioP1;P1;durP2;ratioP2;P2;SDS_P1;SDS_P2;PMS_P1;PMS_P2;Temp;Humidity;BMP_temperature;BMP_pressure;BME280_temperature;BME280_humidity;BME280_pressure;Samples;Min_cycle;Max_cycle;Signal;HPM_P1;HPM_P2
2023/07/26 00:00:46;;;;;;;4.50;3.88;;;;;;;-141.84;80.95;20452.06;5045701;28;20215;-66
2023/07/26 00:03:15;;;;;;;4.30;3.70;;;;;;;-141.84;81.17;20474.41;5044545;28;20274;-67
2023/07/26 00:05:45;;;;;;;5.65;3.88;;;;;;;-141.84;79.97;20466.28;5043957;28;20300;-66
2023/07/26 00:08:13;;;;;;;5.03;3.35;;;;;;;-141.84;80.37;20466.28;5044902;28;20316;-66
2023/07/26 00:10:46;;;;;;;3.85;3.45;;;;;;;-141.84;79.72;20488.63;5044859;28;20588;-65
2023/07/26 00:13:16;;;;;;;3.35;3.05;;;;;;;-141.84;78.69;20492.72;5044684;28;20305;-65
2023/07/26 00:15:45;;;;;;;3.65;3.00;;;;;;;-141.84;77.83;20486.59;5041638;28;20312;-67
2023/07/26 00:18:14;;;;;;;3.92;3.05;;;;;;;-141.84;77.49;20504.91;5044323;28;20248;-66
2023/07/26 00:20:43;;;;;;;3.28;2.97;;;;;;;-141.84;78.05;20488.63;5044696;28;20229;-68
2023/07/26 00:23:12;;;;;;;4.07;3.00;;;;;;;-141.84;78.16;20458.16;5044718;28;20312;-66
2023/07/26 00:25:40;;;;;;;5.38;2.70;;;;;;;-141.84;78.12;20527.25;5043577;28;20225;-66
2023/07/26 00:28:09;;;;;;;5.13;2.65;;;;;;;-141.84;76.46;20496.78;5038425;28;20300;-66
2023/07/26 00:30:37;;;;;;;3.83;2.60;;;;;;;-141.84;75.21;20511.00;5044017;28;20488;-67
2023/07/26 00:33:06;;;;;;;5.50;2.60;;;;;;;-141.84;74.47;20541.50;5043932;28;20241;-67
2023/07/26 00:35:40;;;;;;;5.53;2.17;;;;;;;-141.84;73.14;20533.34;5035895;28;20225;-66
2023/07/26 00:38:10;;;;;;;4.38;2.78;;;;;;;-141.84;73.39;20517.09;5036117;28;20348;-66
2023/07/26 00:40:39;;;;;;;3.92;2.50;;;;;;;-141.84;74.07;20519.13;5043985;28;20231;-66
2023/07/26 00:43:07;;;;;;;3.00;2.10;;;;;;;-141.84;73.97;20525.22;5044742;28;20205;-66
2023/07/26 00:45:39;;;;;;;4.13;2.33;;;;;;;-141.84;74.50;20525.22;5043969;28;20231;-67
2023/07/26 00:48:08;;;;;;;3.83;2.35;;;;;;;-141.84;75.35;20506.94;5036434;28;20651;-66
2023/07/26 00:50:38;;;;;;;4.47;2.45;;;;;;;-141.84;75.87;20498.81;5043849;28;20237;-66
2023/07/26 00:53:07;;;;;;;5.07;2.22;;;;;;;-141.84;74.39;20527.25;5043436;28;20221;-65
2023/07/26 00:55:37;;;;;;;2.53;2.03;;;;;;;-141.84;74.43;20525.22;5043862;28;20260;-67
2023/07/26 00:58:05;;;;;;;7.13;2.42;;;;;;;-141.84;74.09;20545.56;5036512;28;20311;-66
2023/07/26 01:00:34;;;;;;;2.50;2.30;;;;;;;-141.84;74.94;20521.16;5043671;28;20561;-66
2023/07/26 01:03:02;;;;;;;4.63;2.20;;;;;;;-141.84;74.47;20498.81;5043709;28;20248;-65
2023/07/26 01:05:39;;;;;;;4.25;2.22;;;;;;;-141.84;73.48;20541.50;5043642;28;20233;-66
2023/07/26 01:08:18;;;;;;;4.90;2.45;;;;;;;-141.84;73.07;20482.53;5035553;28;20324;-66
2023/07/26 01:10:54;;;;;;;4.25;2.28;;;;;;;-141.84;74.28;20511.00;5043348;28;20229;-66
2023/07/26 01:13:28;;;;;;;2.55;2.03;;;;;;;-141.84;74.09;20521.16;5043890;28;20296;-65
2023/07/26 01:15:57;;;;;;;3.58;1.90;;;;;;;-141.84;73.64;20525.22;5035910;28;20271;-66
2023/07/26 01:18:25;;;;;;;2.95;2.00;;;;;;;-141.84;74.01;20484.56;5043408;28;20244;-65
2023/07/26 01:20:54;;;;;;;2.88;2.05;;;;;;;-141.84;74.84;20472.38;5043377;28;20265;-65
2023/07/26 01:23:24;;;;;;;7.18;2.42;;;;;;;-141.84;74.59;20519.13;5043329;28;20304;-66
2023/07/26 01:25:52;;;;;;;2.63;1.95;;;;;;;-141.84;74.34;20488.63;5015845;28;20226;-66
2023/07/26 01:28:21;;;;;;;5.28;2.40;;;;;;;-141.84;74.03;20484.56;5041615;28;20744;-66
2023/07/26 01:30:50;;;;;;;4.88;2.00;;;;;;;-141.84;73.96;20498.81;5030278;28;20293;-66
2023/07/26 01:33:21;;;;;;;4.20;2.28;;;;;;;-141.84;73.68;20551.66;5038026;28;20263;-66
2023/07/26 01:35:50;;;;;;;5.07;1.88;;;;;;;-141.84;72.58;20543.53;5034360;28;20287;-65
2023/07/26 01:38:20;;;;;;;3.13;2.17;;;;;;;-141.84;73.41;20529.28;5042572;28;20268;-65
2023/07/26 01:40:51;;;;;;;2.65;1.90;;;;;;;-141.84;73.85;20492.72;5043160;28;20303;-66
2023/07/26 01:43:19;;;;;;;3.55;2.53;;;;;;;-141.84;74.04;20480.50;5042922;28;20244;-65
2023/07/26 01:45:48;;;;;;;5.85;2.05;;;;;;;-141.84;73.45;20474.41;5035800;28;20212;-65
2023/07/26 01:48:16;;;;;;;4.40;1.70;;;;;;;-141.84;73.75;20450.03;5042133;28;20316;-66
2023/07/26 01:50:44;;;;;;;5.18;2.08;;;;;;;-141.84;73.32;20464.25;5042608;28;20324;-66
2023/07/26 01:53:13;;;;;;;3.33;2.38;;;;;;;-141.84;72.37;20486.59;5042188;28;20273;-66
2023/07/26 01:55:41;;;;;;;5.18;2.10;;;;;;;-141.84;73.50;20439.84;5042562;28;20645;-66
2023/07/26 01:58:11;;;;;;;2.72;1.92;;;;;;;-141.84;73.66;20468.31;5038890;28;20238;-65
2023/07/26 02:00:40;;;;;;;4.32;2.17;;;;;;;-141.84;72.76;20464.25;5043055;28;20230;-65
2023/07/26 02:03:08;;;;;;;5.25;2.50;;;;;;;-141.84;72.27;20492.72;5042106;28;20279;-65
2023/07/26 02:05:44;;;;;;;3.10;2.00;;;;;;;-141.84;73.36;20464.25;5042246;28;20231;-65
2023/07/26 02:08:13;;;;;;;4.32;2.30;;;;;;;-141.84;73.02;20480.50;5039188;28;20237;-67
2023/07/26 02:10:41;;;;;;;6.22;2.55;;;;;;;-141.84;72.80;20423.59;5042577;28;20221;-67
2023/07/26 02:13:11;;;;;;;5.15;2.45;;;;;;;-141.84;72.91;20419.53;5042637;28;20215;-66
2023/07/26 02:15:40;;;;;;;6.05;2.30;;;;;;;-141.84;72.22;20456.13;5043664;28;20652;-66
2023/07/26 02:18:08;;;;;;;4.63;1.92;;;;;;;-141.84;71.61;20452.06;5034638;28;20229;-67
2023/07/26 02:20:37;;;;;;;4.60;2.13;;;;;;;-141.84;72.78;20456.13;5042341;28;20265;-65
2023/07/26 02:23:06;;;;;;;4.13;2.40;;;;;;;-141.84;73.75;20397.16;5041927;28;20730;-65
2023/07/26 02:25:34;;;;;;;4.20;2.30;;;;;;;-141.84;73.71;20431.72;5041937;28;20229;-67
2023/07/26 02:28:03;;;;;;;2.88;2.10;;;;;;;-141.84;74.05;20419.53;5035633;28;20535;-65
2023/07/26 02:30:33;;;;;;;5.20;2.33;;;;;;;-141.84;73.95;20405.31;5062842;28;20232;-65
2023/07/26 02:33:01;;;;;;;2.85;2.00;;;;;;;-141.84;73.78;20395.13;5061929;28;20232;-67
2023/07/26 02:35:30;;;;;;;5.60;2.25;;;;;;;-141.84;73.43;20409.38;5043951;28;20229;-65
2023/07/26 02:37:58;;;;;;;3.83;2.17;;;;;;;-141.84;73.52;20389.03;5034012;28;20282;-66
2023/07/26 02:40:26;;;;;;;3.58;2.17;;;;;;;-141.84;71.84;20464.25;5041979;28;20213;-66
2023/07/26 02:42:55;;;;;;;3.10;2.00;;;;;;;-141.84;72.20;20419.53;5042452;28;20303;-66
2023/07/26 02:45:24;;;;;;;4.03;1.95;;;;;;;-141.84;73.36;20417.50;5042149;28;20232;-66
2023/07/26 02:47:53;;;;;;;3.20;2.20;;;;;;;-141.84;73.73;20391.06;5041697;28;20318;-66
2023/07/26 02:50:22;;;;;;;2.42;2.15;;;;;;;-141.84;74.03;20374.81;5041973;28;20329;-65
2023/07/26 02:52:50;;;;;;;3.92;1.85;;;;;;;-141.84;74.55;20391.06;5041417;28;20307;-65
2023/07/26 02:55:19;;;;;;;2.75;1.90;;;;;;;-141.84;74.17;20391.06;5041895;28;20598;-67
2023/07/26 02:57:47;;;;;;;2.90;2.00;;;;;;;-141.84;73.62;20356.50;5034496;28;20240;-66
2023/07/26 03:00:16;;;;;;;4.82;2.10;;;;;;;-141.84;73.96;20364.66;5041433;28;20259;-66
2023/07/26 03:02:44;;;;;;;3.53;2.20;;;;;;;-141.84;74.73;20346.34;5041144;28;20667;-67
2023/07/26 03:05:14;;;;;;;4.82;2.35;;;;;;;-141.84;74.63;20321.97;5042450;28;20307;-65
2023/07/26 03:07:43;;;;;;;4.13;2.25;;;;;;;-141.84;75.12;20324.00;5041719;28;20311;-67
2023/07/26 03:10:11;;;;;;;3.13;2.67;;;;;;;-141.84;75.18;20328.06;5038526;28;20217;-65
2023/07/26 03:12:40;;;;;;;4.50;2.45;;;;;;;-141.84;76.10;20321.97;5042095;28;20237;-66
2023/07/26 03:15:09;;;;;;;6.05;2.80;;;;;;;-141.84;76.19;20281.31;5041646;28;20316;-65
2023/07/26 03:17:38;;;;;;;6.00;2.50;;;;;;;-141.84;73.99;20334.16;5041861;28;20272;-66
2023/07/26 03:20:07;;;;;;;4.70;2.13;;;;;;;-141.84;74.77;20297.56;5033780;28;22559;-66
2023/07/26 03:22:37;;;;;;;7.28;2.67;;;;;;;-141.84;75.33;20265.03;5042065;28;20263;-66
2023/07/26 03:25:07;;;;;;;4.32;2.33;;;;;;;-141.84;75.52;20330.09;5042260;28;20589;-66
2023/07/26 03:27:35;;;;;;;4.13;2.80;;;;;;;-141.84;75.91;20277.25;5041567;28;20736;-65
2023/07/26 03:30:04;;;;;;;4.03;2.85;;;;;;;-141.84;76.19;20277.25;5033370;28;20732;-66
2023/07/26 03:32:33;;;;;;;9.25;3.17;;;;;;;-141.84;75.70;20307.72;5041319;28;20308;-64
2023/07/26 03:35:01;;;;;;;4.18;2.63;;;;;;;-141.84;75.96;20273.19;5041476;28;20271;-65
2023/07/26 03:37:30;;;;;;;5.70;2.83;;;;;;;-141.84;75.87;20319.94;5041496;28;20661;-66
2023/07/26 03:39:59;;;;;;;3.20;2.40;;;;;;;-141.84;74.37;20301.63;5033690;28;20316;-65
2023/07/26 03:42:30;;;;;;;3.13;2.20;;;;;;;-141.84;75.61;20289.44;5041377;28;20233;-66
2023/07/26 03:44:58;;;;;;;6.45;3.00;;;;;;;-141.84;75.56;20307.72;5041626;28;20285;-65
2023/07/26 03:47:27;;;;;;;3.90;2.67;;;;;;;-141.84;76.18;20303.66;5050493;28;20312;-66
2023/07/26 03:49:55;;;;;;;2.80;2.60;;;;;;;-141.84;76.39;20334.16;5033292;28;20231;-65
2023/07/26 03:52:25;;;;;;;4.53;2.60;;;;;;;-141.84;76.77;20295.53;5041545;28;20214;-65
2023/07/26 03:54:55;;;;;;;3.97;2.88;;;;;;;-141.84;76.36;20301.63;5041456;28;20219;-65
2023/07/26 03:57:25;;;;;;;3.13;2.42;;;;;;;-141.84;76.09;20344.31;5041427;28;20225;-65
2023/07/26 03:59:53;;;;;;;5.47;2.67;;;;;;;-141.84;75.46;20309.75;5034331;28;20701;-65
2023/07/26 04:02:22;;;;;;;3.78;2.30;;;;;;;-141.84;75.15;20326.03;5044508;28;20325;-65
2023/07/26 04:04:51;;;;;;;2.28;2.05;;;;;;;-141.84;75.93;20309.75;5044225;28;20229;-65
2023/07/26 04:07:19;;;;;;;5.13;2.70;;;;;;;-141.84;73.75;20387.00;5044757;28;20232;-66
2023/07/26 04:09:48;;;;;;;6.10;2.58;;;;;;;-141.84;73.94;20393.09;5038065;28;20233;-65
2023/07/26 04:12:16;;;;;;;2.60;2.15;;;;;;;-141.84;74.10;20384.97;5044651;28;20268;-66
2023/07/26 04:14:46;;;;;;;4.82;2.40;;;;;;;-141.84;73.55;20362.63;5044215;28;20235;-66
2023/07/26 04:17:15;;;;;;;3.13;2.47;;;;;;;-141.84;73.99;20384.97;5044645;28;20316;-66
2023/07/26 04:19:43;;;;;;;2.95;2.38;;;;;;;-141.84;74.21;20378.88;5044289;28;20233;-65
2023/07/26 04:22:12;;;;;;;5.07;2.33;;;;;;;-141.84;73.61;20421.56;5041648;28;20242;-65
2023/07/26 04:24:42;;;;;;;5.85;2.55;;;;;;;-141.84;72.94;20423.59;5044887;28;20240;-65
2023/07/26 04:27:11;;;;;;;4.38;2.15;;;;;;;-141.84;72.84;20417.50;5044188;28;20230;-65
2023/07/26 04:29:41;;;;;;;3.22;2.30;;;;;;;-141.84;71.32;20460.19;5044412;28;20312;-66
2023/07/26 04:32:12;;;;;;;4.10;2.30;;;;;;;-141.84;72.34;20456.13;5039881;28;20310;-66
2023/07/26 04:34:40;;;;;;;3.35;2.30;;;;;;;-141.84;70.94;20443.91;5044016;28;20225;-64
2023/07/26 04:37:09;;;;;;;2.85;2.28;;;;;;;-141.84;71.50;20470.34;5044768;28;20283;-65
2023/07/26 04:39:37;;;;;;;4.03;2.50;;;;;;;-141.84;70.47;20521.16;5043947;28;20328;-65
2023/07/26 04:42:06;;;;;;;2.13;1.92;;;;;;;-141.84;68.35;20555.72;5035961;28;20233;-66
2023/07/26 04:44:35;;;;;;;5.55;2.22;;;;;;;-141.84;68.29;20569.94;5044171;28;20257;-65
2023/07/26 04:47:04;;;;;;;6.30;2.47;;;;;;;-141.84;68.71;20574.00;5044042;28;20459;-66
2023/07/26 04:49:33;;;;;;;4.35;2.08;;;;;;;-141.84;68.96;20545.56;5044043;28;20263;-65
2023/07/26 04:52:02;;;;;;;2.80;1.83;;;;;;;-141.84;68.27;20563.84;5036583;28;20657;-67
2023/07/26 04:54:30;;;;;;;4.80;2.30;;;;;;;-141.84;69.13;20586.22;5043989;28;20550;-65
2023/07/26 04:56:59;;;;;;;4.22;2.00;;;;;;;-141.84;68.19;20582.16;5043455;28;20225;-65
2023/07/26 04:59:27;;;;;;;3.72;2.10;;;;;;;-141.84;67.87;20610.59;5044243;28;20739;-65
2023/07/26 05:01:56;;;;;;;2.13;1.75;;;;;;;-141.84;67.47;20628.91;5035698;28;20217;-66
2023/07/26 05:04:24;;;;;;;4.03;2.17;;;;;;;-141.84;65.65;20685.81;5043772;28;20215;-65
2023/07/26 05:06:54;;;;;;;4.10;2.10;;;;;;;-141.84;64.53;20777.28;5043768;28;20677;-66
2023/07/26 05:09:23;;;;;;;3.88;2.20;;;;;;;-141.84;64.14;20779.31;5043739;28;20240;-66
2023/07/26 05:11:51;;;;;;;3.10;2.10;;;;;;;-141.84;65.24;20789.50;5035579;28;20309;-66
2023/07/26 05:14:20;;;;;;;4.00;2.13;;;;;;;-141.84;63.82;20826.09;5043999;28;20320;-66
2023/07/26 05:16:49;;;;;;;2.53;1.90;;;;;;;-141.84;63.18;20946.03;5024445;28;20233;-67
2023/07/26 05:19:17;;;;;;;3.75;2.05;;;;;;;-141.84;60.89;21102.56;5043698;28;20216;-67
2023/07/26 05:21:46;;;;;;;3.15;2.00;;;;;;;-141.84;58.00;21334.34;5040453;28;20324;-65
2023/07/26 05:24:15;;;;;;;4.07;1.70;;;;;;;-141.84;55.05;21450.22;5043475;28;20239;-64
2023/07/26 05:26:44;;;;;;;4.00;1.67;;;;;;;-141.84;54.34;21433.97;5042457;28;20237;-66
2023/07/26 05:29:12;;;;;;;4.97;1.65;;;;;;;-141.84;54.41;21383.13;5043575;28;20241;-66
2023/07/26 05:31:41;;;;;;;2.75;1.58;;;;;;;-141.84;55.27;21322.13;5042467;28;20248;-65
2023/07/26 05:34:09;;;;;;;2.88;1.63;;;;;;;-141.84;54.55;21309.94;5037267;28;20292;-66
2023/07/26 05:36:38;;;;;;;2.45;1.65;;;;;;;-141.84;54.76;21297.75;5043078;28;20243;-66
2023/07/26 05:39:06;;;;;;;2.72;1.58;;;;;;;-141.84;56.20;21267.25;5043375;28;20316;-66
2023/07/26 05:41:36;;;;;;;2.28;1.63;;;;;;;-141.84;55.92;21287.56;5042884;28;20229;-65
2023/07/26 05:44:05;;;;;;;2.28;1.63;;;;;;;-141.84;55.83;21324.19;5034267;28;20710;-66
2023/07/26 05:46:33;;;;;;;4.60;1.83;;;;;;;-141.84;55.02;21318.06;5042629;28;20697;-65
2023/07/26 05:49:02;;;;;;;3.58;1.90;;;;;;;-141.84;54.48;21326.22;5043586;28;20229;-66
2023/07/26 05:51:30;;;;;;;3.75;1.95;;;;;;;-141.84;55.09;21293.69;5042797;28;20235;-67
2023/07/26 05:53:59;;;;;;;2.72;1.83;;;;;;;-141.84;56.00;21279.44;5036203;28;20268;-65
2023/07/26 05:56:28;;;;;;;4.15;2.20;;;;;;;-141.84;56.62;21232.69;5042997;28;20225;-65
2023/07/26 05:58:58;;;;;;;4.22;2.13;;;;;;;-141.84;56.70;21232.69;5042834;28;20304;-64
2023/07/26 06:01:26;;;;;;;6.28;2.35;;;;;;;-141.84;57.46;21135.09;5042483;28;20320;-68
2023/07/26 06:03:55;;;;;;;5.90;2.10;;;;;;;-141.84;58.09;21240.81;5034549;28;20205;-68
2023/07/26 06:06:23;;;;;;;6.88;2.17;;;;;;;-141.84;56.98;21275.38;5042710;28;20233;-66
2023/07/26 06:08:52;;;;;;;5.80;1.98;;;;;;;-141.84;55.88;21285.53;5042788;28;20324;-67
2023/07/26 06:11:21;;;;;;;7.55;1.83;;;;;;;-141.84;56.01;21301.81;5042279;28;20229;-66
2023/07/26 06:13:49;;;;;;;4.95;2.13;;;;;;;-141.84;56.77;21275.38;5034605;28;20233;-66
2023/07/26 06:16:19;;;;;;;4.07;1.83;;;;;;;-141.84;56.29;21265.22;5044552;28;20213;-66
2023/07/26 06:18:48;;;;;;;2.88;1.65;;;;;;;-141.84;56.77;21216.41;5045929;28;20217;-66
2023/07/26 06:21:17;;;;;;;4.05;1.95;;;;;;;-141.84;57.13;21173.72;5042181;28;20252;-66
2023/07/26 06:23:46;;;;;;;4.30;1.98;;;;;;;-141.84;57.15;21165.59;5035426;28;20333;-65
2023/07/26 06:26:15;;;;;;;4.47;1.70;;;;;;;-141.84;57.61;21114.75;5022782;28;20320;-65
2023/07/26 06:28:43;;;;;;;2.75;1.67;;;;;;;-141.84;58.17;21120.88;5040980;28;20257;-65
2023/07/26 06:31:12;;;;;;;1.98;1.77;;;;;;;-141.84;58.26;21133.06;5041748;28;20304;-68
2023/07/26 06:33:42;;;;;;;2.95;1.65;;;;;;;-141.84;58.28;21108.66;5042332;28;20275;-65
2023/07/26 06:36:11;;;;;;;3.45;1.70;;;;;;;-141.84;59.17;21037.50;5039711;28;20237;-68
2023/07/26 06:38:39;;;;;;;4.75;1.67;;;;;;;-141.84;58.68;21061.91;5041719;28;20596;-68
2023/07/26 06:41:08;;;;;;;3.70;1.77;;;;;;;-141.84;58.56;21082.25;5041619;28;20323;-66
2023/07/26 06:43:36;;;;;;;4.20;2.15;;;;;;;-141.84;58.91;21076.13;5041382;28;20256;-65
2023/07/26 06:46:05;;;;;;;4.93;1.90;;;;;;;-141.84;59.64;20998.88;5035101;28;20284;-66
2023/07/26 06:48:33;;;;;;;3.60;1.63;;;;;;;-141.84;60.12;21039.53;5034765;28;20229;-67
2023/07/26 06:51:05;;;;;;;2.95;2.00;;;;;;;-141.84;59.97;21007.00;5041977;28;20324;-66
2023/07/26 06:53:34;;;;;;;2.42;1.90;;;;;;;-141.84;60.21;20986.69;5034061;28;20316;-66
2023/07/26 06:56:02;;;;;;;5.13;2.08;;;;;;;-141.84;60.89;21002.94;5034638;28;20229;-67
2023/07/26 06:58:31;;;;;;;2.50;1.85;;;;;;;-141.84;61.02;20931.78;5042305;28;20301;-66
2023/07/26 07:00:59;;;;;;;2.58;2.08;;;;;;;-141.84;61.67;20990.75;5042587;28;20225;-64
2023/07/26 07:03:28;;;;;;;3.42;1.85;;;;;;;-141.84;61.43;20966.34;5041743;28;20233;-65
2023/07/26 07:05:58;;;;;;;3.75;1.63;;;;;;;-141.84;60.55;20996.84;5035407;28;20233;-66
2023/07/26 07:08:28;;;;;;;2.95;1.80;;;;;;;-141.84;60.10;21033.44;5042958;28;20656;-65
2023/07/26 07:10:56;;;;;;;5.18;1.90;;;;;;;-141.84;59.75;21041.56;5040208;28;20648;-68
2023/07/26 07:13:25;;;;;;;5.53;1.92;;;;;;;-141.84;59.50;21019.22;5038639;28;20216;-66
2023/07/26 07:15:53;;;;;;;2.70;1.90;;;;;;;-141.84;59.97;21084.28;5033664;28;20201;-64
2023/07/26 07:18:22;;;;;;;2.85;1.73;;;;;;;-141.84;59.36;21080.19;5040807;28;20604;-64
2023/07/26 07:20:56;;;;;;;5.05;1.80;;;;;;;-141.84;58.25;21165.59;5041041;28;20937;-64
2023/07/26 07:23:26;;;;;;;3.53;1.90;;;;;;;-141.84;57.87;21098.50;5040974;28;20282;-64
2023/07/26 07:25:55;;;;;;;3.10;2.00;;;;;;;-141.84;57.22;21114.75;5033795;28;20252;-64
2023/07/26 07:28:24;;;;;;;3.45;2.05;;;;;;;-141.84;56.45;21139.16;5040846;28;20685;-64
2023/07/26 07:30:52;;;;;;;2.90;1.77;;;;;;;-141.84;56.55;21159.50;5042120;28;20197;-64
2023/07/26 07:33:21;;;;;;;4.13;1.90;;;;;;;-141.84;57.10;21179.81;5021490;28;20261;-65
2023/07/26 07:35:50;;;;;;;2.50;1.77;;;;;;;-141.84;55.72;21230.66;5033894;28;20233;-66
2023/07/26 07:38:18;;;;;;;3.50;1.60;;;;;;;-141.84;55.06;21301.81;5045142;28;20236;-65
2023/07/26 07:40:48;;;;;;;2.47;1.80;;;;;;;-141.84;55.36;21273.34;5044925;28;20308;-67
2023/07/26 07:43:17;;;;;;;4.00;1.90;;;;;;;-141.84;54.87;21314.00;5045127;28;20244;-67
2023/07/26 07:45:45;;;;;;;3.28;1.42;;;;;;;-141.84;54.27;21401.44;5042542;28;20289;-63
2023/07/26 07:48:14;;;;;;;2.47;1.58;;;;;;;-141.84;53.21;21419.72;5047523;28;20251;-62
2023/07/26 07:50:42;;;;;;;2.88;1.38;;;;;;;-141.84;52.24;21472.59;5055412;28;20321;-62
2023/07/26 07:53:11;;;;;;;1.95;1.40;;;;;;;-141.84;52.36;21472.59;5045586;28;20235;-62
2023/07/26 07:55:40;;;;;;;1.83;1.35;;;;;;;-141.84;52.77;21458.38;5044797;28;20253;-63
2023/07/26 07:58:10;;;;;;;3.95;1.80;;;;;;;-141.84;52.37;21442.09;5037879;28;20241;-65
2023/07/26 08:00:39;;;;;;;2.38;1.80;;;;;;;-141.84;53.10;21372.97;5044469;28;20744;-64
2023/07/26 08:03:07;;;;;;;1.88;1.38;;;;;;;-141.84;52.60;21350.59;5042960;28;20278;-66
2023/07/26 08:05:36;;;;;;;3.47;1.85;;;;;;;-141.84;53.01;21340.44;5044737;28;20313;-68
2023/07/26 08:08:06;;;;;;;3.25;1.60;;;;;;;-141.84;53.20;21395.34;5036274;28;20328;-66
2023/07/26 08:10:37;;;;;;;2.90;1.70;;;;;;;-141.84;52.96;21383.13;5045150;28;20598;-60
2023/07/26 08:13:06;;;;;;;3.47;2.08;;;;;;;-141.84;51.75;21415.66;5045013;28;20298;-60
2023/07/26 08:15:38;;;;;;;2.42;1.75;;;;;;;-141.84;52.16;21446.16;5044332;28;20331;-61
2023/07/26 08:18:08;;;;;;;2.40;1.50;;;;;;;-141.84;52.35;21452.25;5036270;28;20237;-66
2023/07/26 08:20:37;;;;;;;3.90;2.05;;;;;;;-141.84;50.24;21539.69;5044084;28;20295;-67
2023/07/26 08:23:06;;;;;;;2.65;1.90;;;;;;;-141.84;50.71;21558.00;5044145;28;20225;-67
2023/07/26 08:25:35;;;;;;;4.63;2.88;;;;;;;-141.84;50.38;21582.38;5044791;28;20230;-64
2023/07/26 08:28:04;;;;;;;4.97;1.55;;;;;;;-141.84;47.78;21643.38;5036877;28;20244;-66
2023/07/26 08:30:32;;;;;;;2.38;1.85;;;;;;;-141.84;46.16;21667.78;5044538;28;20266;-66
2023/07/26 08:33:02;;;;;;;3.42;1.17;;;;;;;-141.84;47.16;21667.78;5043467;28;20720;-66
2023/07/26 08:35:32;;;;;;;2.15;1.40;;;;;;;-141.84;46.88;21696.25;5043886;28;20257;-65
2023/07/26 08:38:00;;;;;;;3.30;1.80;;;;;;;-141.84;47.15;21637.28;5024765;28;20739;-65
2023/07/26 08:40:29;;;;;;;2.50;1.55;;;;;;;-141.84;46.52;21667.78;5043496;28;20213;-67
2023/07/26 08:43:02;;;;;;;2.00;1.50;;;;;;;-141.84;46.52;21673.88;5024255;28;20222;-65
2023/07/26 08:45:33;;;;;;;4.32;1.58;;;;;;;-141.84;46.58;21675.94;5042655;28;20302;-66
2023/07/26 08:48:03;;;;;;;3.65;1.75;;;;;;;-141.84;45.64;21722.69;5035888;28;20291;-65
2023/07/26 08:50:33;;;;;;;2.67;1.60;;;;;;;-141.84;46.24;21675.94;5035078;28;20241;-65
2023/07/26 08:53:05;;;;;;;2.75;1.70;;;;;;;-141.84;45.61;21614.94;5043438;28;20248;-64
2023/07/26 08:55:33;;;;;;;3.30;1.27;;;;;;;-141.84;46.58;21551.91;5043847;28;20308;-64
2023/07/26 08:58:02;;;;;;;2.15;1.58;;;;;;;-141.84;46.77;21562.06;5036900;28;20760;-64
2023/07/26 09:00:31;;;;;;;6.32;2.00;;;;;;;-141.84;47.69;21558.00;5043517;28;20229;-64
2023/07/26 09:03:04;;;;;;;2.53;1.75;;;;;;;-141.84;47.67;21564.09;5043798;28;20229;-64
2023/07/26 09:05:33;;;;;;;2.30;1.60;;;;;;;-141.84;48.37;21576.28;5043643;28;20229;-65
2023/07/26 09:08:02;;;;;;;2.28;1.70;;;;;;;-141.84;47.90;21582.38;5036495;28;20233;-64
2023/07/26 09:10:32;;;;;;;3.05;1.50;;;;;;;-141.84;47.96;21588.50;5043055;28;20237;-64
2023/07/26 09:13:09;;;;;;;4.70;2.08;;;;;;;-141.84;47.57;21708.47;5044535;28;20355;-65
2023/07/26 09:15:38;;;;;;;3.33;1.90;;;;;;;-141.84;48.07;21645.44;5043610;28;20294;-65
2023/07/26 09:18:09;;;;;;;5.88;1.70;;;;;;;-141.84;49.10;21608.81;5035823;28;20245;-65
2023/07/26 09:20:38;;;;;;;2.65;1.35;;;;;;;-141.84;48.85;21633.22;5039572;28;20223;-65
2023/07/26 09:23:09;;;;;;;3.35;1.50;;;;;;;-141.84;48.48;21663.72;5062180;28;20234;-64
2023/07/26 09:25:39;;;;;;;2.47;1.60;;;;;;;-141.84;48.09;21686.09;5079954;28;20691;-64
2023/07/26 09:28:09;;;;;;;1.35;1.10;;;;;;;-141.84;46.33;21775.56;5060101;28;20208;-62
2023/07/26 09:30:38;;;;;;;2.30;1.40;;;;;;;-141.84;44.95;21826.41;5077181;28;20255;-63
2023/07/26 09:33:09;;;;;;;2.03;1.55;;;;;;;-141.84;45.22;21747.09;5070209;28;20232;-65
2023/07/26 09:35:45;;;;;;;3.25;1.50;;;;;;;-141.84;44.76;21793.84;5073724;28;20258;-64
2023/07/26 09:38:15;;;;;;;3.55;1.75;;;;;;;-141.84;45.23;21820.28;5062382;28;20319;-65
2023/07/26 09:40:43;;;;;;;1.80;1.42;;;;;;;-141.84;44.54;21810.13;5062169;28;20236;-64
2023/07/26 09:43:12;;;;;;;2.90;1.73;;;;;;;-141.84;44.88;21785.72;5070032;28;20563;-65
2023/07/26 09:45:41;;;;;;;1.90;1.70;;;;;;;-141.84;44.38;21824.34;5067286;28;20208;-65
2023/07/26 09:48:14;;;;;;;1.80;1.48;;;;;;;-141.84;44.70;21852.81;5053409;28;20225;-64
2023/07/26 09:50:47;;;;;;;2.50;1.95;;;;;;;-141.84;44.74;21928.06;5067880;28;20322;-65
2023/07/26 09:53:22;;;;;;;4.15;2.03;;;;;;;-141.84;44.53;21883.31;5064916;28;20648;-65
2023/07/26 09:55:51;;;;;;;3.53;2.08;;;;;;;-141.84;44.46;21867.06;5049220;28;20572;-64
2023/07/26 09:58:25;;;;;;;2.25;1.70;;;;;;;-141.84;44.58;21779.63;5063442;28;20771;-65
2023/07/26 10:00:56;;;;;;;3.58;1.65;;;;;;;-141.84;45.00;21724.72;5068279;28;20210;-67
2023/07/26 10:03:30;;;;;;;3.17;1.92;;;;;;;-141.84;46.02;21673.88;5074246;28;20259;-64
2023/07/26 10:05:59;;;;;;;4.03;1.60;;;;;;;-141.84;45.91;21659.66;5043946;28;20227;-64
2023/07/26 10:08:28;;;;;;;2.17;1.73;;;;;;;-141.84;45.67;21625.09;5076370;28;20715;-64
2023/07/26 10:10:58;;;;;;;3.25;1.55;;;;;;;-141.84;47.23;21537.66;5081490;28;20311;-64
2023/07/26 10:13:28;;;;;;;4.05;1.80;;;;;;;-141.84;46.88;21507.16;5068137;28;20219;-65
2023/07/26 10:15:58;;;;;;;3.08;1.77;;;;;;;-141.84;47.76;21515.28;5066754;28;20303;-65
2023/07/26 10:18:33;;;;;;;7.07;2.00;;;;;;;-141.84;47.33;21610.84;5070697;28;20648;-64
2023/07/26 10:21:03;;;;;;;1.90;1.60;;;;;;;-141.84;46.19;21647.47;5063958;28;20221;-65
2023/07/26 10:23:32;;;;;;;2.10;1.58;;;;;;;-141.84;45.33;21667.78;5061657;28;20260;-64
2023/07/26 10:26:04;;;;;;;2.83;1.60;;;;;;;-141.84;44.07;21716.59;5060496;28;20251;-64
2023/07/26 10:28:34;;;;;;;1.75;1.10;;;;;;;-141.84;43.97;21767.44;5077334;28;20650;-64
2023/07/26 10:31:03;;;;;;;2.53;1.65;;;;;;;-141.84;43.33;21773.53;5065596;28;20234;-64
2023/07/26 10:33:33;;;;;;;2.75;1.80;;;;;;;-141.84;43.60;21860.97;5079563;28;20731;-64
2023/07/26 10:36:04;;;;;;;2.65;1.55;;;;;;;-141.84;42.35;21854.88;5054115;28;20243;-64
2023/07/26 10:38:38;;;;;;;4.00;1.80;;;;;;;-141.84;46.00;21783.69;5082392;28;20243;-66
2023/07/26 10:41:22;;;;;;;2.47;1.50;;;;;;;-141.84;48.03;21714.56;5064520;28;20789;-65
2023/07/26 10:44:01;;;;;;;4.00;1.70;;;;;;;-141.84;51.00;21551.91;5042213;28;20321;-64
2023/07/26 10:46:29;;;;;;;4.03;1.70;;;;;;;-141.84;53.01;21478.69;5061140;28;20744;-65
2023/07/26 10:49:15;;;;;;;1.80;1.60;;;;;;;-141.84;56.85;21423.81;5070595;28;20210;-63
2023/07/26 10:51:52;;;;;;;1.52;1.42;;;;;;;-141.84;57.99;21330.28;5050078;28;20637;-64
2023/07/26 10:54:38;;;;;;;2.00;1.40;;;;;;;-141.84;59.03;21224.56;5060969;28;20228;-65
2023/07/26 10:57:17;;;;;;;3.53;1.92;;;;;;;-141.84;61.98;21169.66;5079278;28;20232;-65
2023/07/26 11:00:10;;;;;;;2.20;1.80;;;;;;;-141.84;63.87;21106.63;5045087;28;20308;-64
2023/07/26 11:02:44;;;;;;;1.95;1.67;;;;;;;-141.84;64.56;21027.34;5056460;28;20224;-65
2023/07/26 11:05:16;;;;;;;1.60;1.50;;;;;;;-141.84;67.40;20974.50;5059449;28;20243;-65
2023/07/26 11:07:59;;;;;;;1.95;1.80;;;;;;;-141.84;68.59;20933.81;5075016;28;20322;-67
2023/07/26 11:10:30;;;;;;;1.73;1.60;;;;;;;-141.84;67.78;20946.03;5082494;28;20253;-62
2023/07/26 11:13:16;;;;;;;2.80;2.13;;;;;;;-141.84;67.93;20968.38;5066438;28;21000;-63
2023/07/26 11:15:46;;;;;;;2.50;1.85;;;;;;;-141.84;67.19;20992.78;5058404;28;20299;-65
2023/07/26 11:18:41;;;;;;;2.72;1.60;;;;;;;-141.84;64.46;21017.19;5064793;28;20232;-64
2023/07/26 11:21:17;;;;;;;1.65;1.52;;;;;;;-141.84;64.54;21084.28;5068166;28;20303;-65
2023/07/26 11:23:46;;;;;;;2.33;1.60;;;;;;;-141.84;65.43;21122.91;5058990;28;20224;-63
2023/07/26 11:26:14;;;;;;;2.75;1.60;;;;;;;-141.84;63.38;21163.56;5072294;28;20727;-63
2023/07/26 11:28:43;;;;;;;2.30;1.55;;;;;;;-141.84;60.62;21179.81;5070451;28;20751;-68